createdAt,value
2022-08-26T00:00:31.198Z,0.1
2022-08-26T00:03:31.254Z,0.05
2022-08-26T00:06:32.127Z,0.15
2022-08-26T00:09:31.273Z,0.1
2022-08-26T00:12:37.647Z,0
2022-08-26T00:15:31.899Z,0
2022-08-26T00:18:38.635Z,0
2022-08-26T00:21:31.224Z,0
2022-08-26T00:24:32.140Z,0.1
2022-08-26T00:27:33.909Z,0
2022-08-26T00:30:31.707Z,0
2022-08-26T00:33:32.614Z,0
2022-08-26T00:36:31.234Z,0
2022-08-26T00:39:31.266Z,0.1
2022-08-26T00:42:31.300Z,0.2
2022-08-26T00:45:31.341Z,0.15
2022-08-26T00:48:32.833Z,0
2022-08-26T00:51:31.243Z,0
2022-08-26T00:54:31.269Z,0
2022-08-26T00:57:31.235Z,0
2022-08-26T01:00:31.956Z,0
2022-08-26T01:03:32.133Z,0.15
2022-08-26T01:06:31.413Z,0.45
2022-08-26T01:09:31.255Z,0
2022-08-26T01:12:31.289Z,0
2022-08-26T01:15:33.831Z,0
2022-08-26T01:18:31.410Z,0
2022-08-26T01:21:31.306Z,0.35
2022-08-26T01:24:31.293Z,0.3
2022-08-26T01:27:33.592Z,0.25
2022-08-26T01:30:31.279Z,0.05
2022-08-26T01:33:40.054Z,0.05
2022-08-26T01:36:31.319Z,0.1
2022-08-26T01:39:31.303Z,0
2022-08-26T01:42:31.314Z,0.25
2022-08-26T01:45:31.460Z,0.5
2022-08-26T01:48:31.299Z,0.05
2022-08-26T01:51:31.334Z,0
2022-08-26T01:54:31.306Z,0
2022-08-26T01:57:31.330Z,0
2022-08-26T02:00:31.328Z,0
2022-08-26T02:03:31.793Z,0
2022-08-26T02:06:31.319Z,0
2022-08-26T02:09:31.679Z,0
2022-08-26T02:12:31.355Z,0
2022-08-26T02:15:31.623Z,0
2022-08-26T02:18:31.348Z,0
2022-08-26T02:21:31.613Z,0
2022-08-26T02:24:31.633Z,0
2022-08-26T02:27:33.034Z,0.2
2022-08-26T02:30:31.375Z,0
2022-08-26T02:33:31.386Z,0.15
2022-08-26T02:36:31.378Z,0.25
2022-08-26T02:39:31.803Z,0.2
2022-08-26T02:42:31.550Z,0.3
2022-08-26T02:45:31.379Z,0.25
2022-08-26T02:48:31.414Z,0.45
2022-08-26T02:51:31.346Z,0
2022-08-26T02:54:31.620Z,0
2022-08-26T02:57:31.333Z,0
2022-08-26T03:00:31.419Z,0
2022-08-26T03:03:31.709Z,0
2022-08-26T03:06:31.380Z,0
2022-08-26T03:09:31.406Z,0
2022-08-26T03:12:31.413Z,0
2022-08-26T03:15:31.738Z,0
2022-08-26T03:18:31.400Z,0
2022-08-26T03:21:31.380Z,0
2022-08-26T03:24:32.585Z,0
2022-08-26T03:27:33.648Z,0
2022-08-26T03:30:31.471Z,0
2022-08-26T03:33:31.423Z,0.05
2022-08-26T03:36:31.439Z,0.05
2022-08-26T03:39:33.490Z,0
2022-08-26T03:42:31.435Z,0
2022-08-26T03:45:31.421Z,0
2022-08-26T03:48:31.463Z,0.15
2022-08-26T03:51:31.918Z,0.15
2022-08-26T03:54:31.429Z,0.25
2022-08-26T03:57:31.490Z,0.25
2022-08-26T04:00:31.439Z,0.1
2022-08-26T04:03:31.471Z,0
2022-08-26T04:06:31.445Z,0
2022-08-26T04:09:36.060Z,0
2022-08-26T04:12:31.420Z,0.15
2022-08-26T04:15:31.454Z,0
2022-08-26T04:18:37.141Z,0
2022-08-26T04:21:31.948Z,0
2022-08-26T04:24:31.478Z,0
2022-08-26T04:27:31.434Z,0
2022-08-26T04:30:31.454Z,0
2022-08-26T04:33:34.081Z,0
2022-08-26T04:36:31.511Z,0
2022-08-26T04:39:32.663Z,0
2022-08-26T04:42:31.459Z,0
2022-08-26T04:45:31.475Z,0
2022-08-26T04:48:31.479Z,0
2022-08-26T04:51:34.497Z,0
2022-08-26T04:54:32.240Z,0.25
2022-08-26T04:57:32.421Z,0.15
2022-08-26T05:00:31.499Z,0
2022-08-26T05:03:32.083Z,0
2022-08-26T05:06:37.115Z,0
2022-08-26T05:09:31.515Z,0
2022-08-26T05:12:32.596Z,0
2022-08-26T05:15:33.376Z,0
2022-08-26T05:18:31.491Z,0
2022-08-26T05:21:31.532Z,0
2022-08-26T05:24:31.500Z,0
2022-08-26T05:27:31.511Z,0.35
2022-08-26T05:30:31.551Z,0.45
2022-08-26T05:33:31.536Z,0.4
2022-08-26T05:36:31.563Z,0.3
2022-08-26T05:39:32.152Z,0.2
2022-08-26T05:42:31.917Z,0.2
2022-08-26T05:45:31.536Z,0
2022-08-26T05:48:31.550Z,0.1
2022-08-26T05:51:31.920Z,0.1
2022-08-26T05:54:31.514Z,0
2022-08-26T05:57:31.534Z,0
2022-08-26T06:00:31.575Z,0
2022-08-26T06:03:31.536Z,0
2022-08-26T06:06:31.561Z,0.3
2022-08-26T06:09:31.923Z,0.3
2022-08-26T06:12:31.519Z,0.15
2022-08-26T06:15:32.052Z,0.25
2022-08-26T06:18:31.570Z,0.4
2022-08-26T06:21:31.977Z,0.4
2022-08-26T06:24:31.575Z,0.35
2022-08-26T06:27:33.728Z,0.35
2022-08-26T06:30:31.597Z,0.4
2022-08-26T06:33:32.129Z,0.35
2022-08-26T06:36:31.647Z,0.45
2022-08-26T06:39:32.250Z,0.35
2022-08-26T06:42:32.125Z,0.45
2022-08-26T06:45:32.045Z,0.4
2022-08-26T06:48:31.584Z,0.3
2022-08-26T06:51:31.593Z,0.35
2022-08-26T06:54:31.966Z,0.3
2022-08-26T06:57:32.556Z,0.45
2022-08-26T07:00:31.578Z,0.4
2022-08-26T07:03:39.424Z,0.15
2022-08-26T07:06:32.530Z,0.05
2022-08-26T07:09:31.636Z,0.35
2022-08-26T07:12:31.589Z,0.15
2022-08-26T07:15:32.548Z,0.3
2022-08-26T07:18:31.619Z,0.5
2022-08-26T07:21:31.646Z,0.55
2022-08-26T07:24:31.638Z,0.3
2022-08-26T07:27:31.623Z,0.55
2022-08-26T07:30:32.153Z,0.7
2022-08-26T07:33:31.657Z,0.35
2022-08-26T07:36:31.653Z,0.35
2022-08-26T07:39:32.763Z,0.75
2022-08-26T07:42:32.066Z,0.35
2022-08-26T07:45:31.594Z,0.65
2022-08-26T07:48:31.954Z,0.45
2022-08-26T07:51:32.362Z,0.6
2022-08-26T07:54:31.814Z,0.35
2022-08-26T07:57:31.662Z,0.4
2022-08-26T08:00:33.440Z,0.4
2022-08-26T08:03:31.654Z,0.25
2022-08-26T08:06:32.829Z,0.15
2022-08-26T08:09:31.709Z,0.25
2022-08-26T08:12:31.622Z,0.3
2022-08-26T08:15:32.021Z,0.2
2022-08-26T08:18:31.678Z,0.5
2022-08-26T08:21:31.690Z,0.4
2022-08-26T08:24:31.730Z,0.6
2022-08-26T08:27:31.698Z,0.85
2022-08-26T08:30:35.831Z,1.25
2022-08-26T08:33:31.695Z,1.25
2022-08-26T08:36:36.674Z,0.4
2022-08-26T08:39:31.710Z,1.1
2022-08-26T08:42:31.735Z,0.65
2022-08-26T08:45:37.173Z,1.05
2022-08-26T08:48:31.745Z,1.3
2022-08-26T08:51:31.721Z,0.55
2022-08-26T08:54:32.057Z,1.1
2022-08-26T08:57:31.719Z,0.9
2022-08-26T09:00:31.715Z,0.55
2022-08-26T09:03:31.691Z,0.9
2022-08-26T09:06:31.896Z,1.25
2022-08-26T09:09:31.791Z,0.75
2022-08-26T09:12:31.721Z,0.95
2022-08-26T09:15:31.736Z,1.15
2022-08-26T09:18:31.723Z,1.55
2022-08-26T09:21:31.721Z,1.2
2022-08-26T09:24:31.706Z,1.15
2022-08-26T09:27:32.392Z,1.3
2022-08-26T09:30:32.139Z,0.55
2022-08-26T09:33:31.707Z,0.45
2022-08-26T09:36:32.935Z,1.2
2022-08-26T09:39:32.135Z,1.85
2022-08-26T09:42:31.754Z,1.6
2022-08-26T09:45:31.730Z,1.5
2022-08-26T09:48:31.731Z,1.35
2022-08-26T09:51:31.763Z,1
2022-08-26T09:54:34.304Z,1.75
2022-08-26T09:57:31.769Z,1.15
2022-08-26T10:00:32.181Z,2
2022-08-26T10:03:32.312Z,1.3
2022-08-26T10:06:31.806Z,1.4
2022-08-26T10:09:31.979Z,2.1
2022-08-26T10:12:31.804Z,1.4
2022-08-26T10:15:31.831Z,1.25
2022-08-26T10:18:35.552Z,1.25
2022-08-26T10:21:32.030Z,0.7
2022-08-26T10:24:31.771Z,0.8
2022-08-26T10:27:31.842Z,0.7
2022-08-26T10:30:31.875Z,0.3
2022-08-26T10:33:31.779Z,0.7
2022-08-26T10:36:43.051Z,0.95
2022-08-26T10:39:31.791Z,0.7
2022-08-26T10:42:31.782Z,1.5
2022-08-26T10:45:32.593Z,2.25
2022-08-26T10:48:36.558Z,2.95
2022-08-26T10:51:32.017Z,2.45
2022-08-26T10:54:31.820Z,1.65
2022-08-26T10:57:31.820Z,1.2
2022-08-26T11:00:32.371Z,1.6
2022-08-26T11:03:32.879Z,2.2
2022-08-26T11:06:31.895Z,1.8
2022-08-26T11:09:33.189Z,1.2
2022-08-26T11:12:34.050Z,1.2
2022-08-26T11:15:31.866Z,1.35
2022-08-26T11:18:32.552Z,1.1
2022-08-26T11:21:31.932Z,1.2
2022-08-26T11:24:32.580Z,1.3
2022-08-26T11:27:31.915Z,0.75
2022-08-26T11:30:31.914Z,0.95
2022-08-26T11:33:31.931Z,0.85
2022-08-26T11:36:31.871Z,0.8
2022-08-26T11:39:36.765Z,1.9
2022-08-26T11:42:32.036Z,0.85
2022-08-26T11:45:32.552Z,0.95
2022-08-26T11:48:31.991Z,1.65
2022-08-26T11:51:32.949Z,1.45
2022-08-26T11:54:36.614Z,1.8
2022-08-26T11:57:32.649Z,1.2
2022-08-26T12:00:34.795Z,1.5
2022-08-26T12:03:32.751Z,1.55
2022-08-26T12:06:32.037Z,1.2
2022-08-26T12:09:31.970Z,1.1
2022-08-26T12:12:36.086Z,1.9
2022-08-26T12:15:32.249Z,1.6
2022-08-26T12:18:32.070Z,1.5
2022-08-26T12:21:35.760Z,1.9
2022-08-26T12:24:32.067Z,2.05
2022-08-26T12:27:32.112Z,2
2022-08-26T12:30:32.034Z,2
2022-08-26T12:33:31.922Z,1.95
2022-08-26T12:36:31.937Z,1.95
2022-08-26T12:39:31.911Z,1.75
2022-08-26T12:42:31.943Z,1.85
2022-08-26T12:45:31.986Z,1.15
2022-08-26T12:48:31.981Z,1.9
2022-08-26T12:51:31.971Z,1.5
2022-08-26T12:54:31.945Z,1.65
2022-08-26T12:57:31.965Z,1.55
2022-08-26T13:00:31.956Z,0.95
2022-08-26T13:03:31.944Z,0.9
2022-08-26T13:06:31.947Z,0.65
2022-08-26T13:09:31.992Z,0.9
2022-08-26T13:12:31.985Z,1.15
2022-08-26T13:15:32.851Z,0.65
2022-08-26T13:18:31.965Z,0.55
2022-08-26T13:21:37.600Z,0.5
2022-08-26T13:24:31.937Z,0.2
2022-08-26T13:27:31.966Z,0.3
2022-08-26T13:30:32.059Z,0.3
2022-08-26T13:33:32.064Z,0.45
2022-08-26T13:36:31.956Z,0.6
2022-08-26T13:39:31.950Z,0.55
2022-08-26T13:42:31.982Z,0.55
2022-08-26T13:45:31.986Z,0.6
2022-08-26T13:48:31.963Z,0.7
2022-08-26T13:51:31.991Z,0.65
2022-08-26T13:54:31.980Z,0.7
2022-08-26T13:57:32.011Z,0.4
2022-08-26T14:00:32.114Z,0.25
2022-08-26T14:03:32.132Z,0.3
2022-08-26T14:06:32.033Z,0.3
2022-08-26T14:09:38.276Z,0.15
2022-08-26T14:12:32.000Z,0.1
2022-08-26T14:15:32.060Z,0.45
2022-08-26T14:18:32.143Z,0.35
2022-08-26T14:21:32.092Z,0.3
2022-08-26T14:24:32.025Z,0.3
2022-08-26T14:27:32.047Z,0.4
2022-08-26T14:30:32.035Z,0.05
2022-08-26T14:33:32.051Z,0
2022-08-26T14:36:32.056Z,0.4
2022-08-26T14:39:32.003Z,0.35
2022-08-26T14:42:32.584Z,0.5
2022-08-26T14:45:32.065Z,0.5
2022-08-26T14:48:32.035Z,0.5
2022-08-26T14:51:32.080Z,0.3
2022-08-26T14:54:32.046Z,0.3
2022-08-26T14:57:32.109Z,0.4
2022-08-26T15:00:32.120Z,0.6
2022-08-26T15:03:32.120Z,0.5
2022-08-26T15:06:32.125Z,0.5
2022-08-26T15:09:32.088Z,0.45
2022-08-26T15:12:32.043Z,0.3
2022-08-26T15:15:32.103Z,0.55
2022-08-26T15:18:32.101Z,0.5
2022-08-26T15:21:32.100Z,0.4
2022-08-26T15:24:32.098Z,0.3
2022-08-26T15:27:32.071Z,0.3
2022-08-26T15:30:32.008Z,0.3
2022-08-26T15:33:32.082Z,0.7
2022-08-26T15:36:32.038Z,0.45
2022-08-26T15:39:32.100Z,0.25
2022-08-26T15:42:32.071Z,0.35
2022-08-26T15:45:32.085Z,0.25
2022-08-26T15:48:32.106Z,0.4
2022-08-26T15:51:32.077Z,0.15
2022-08-26T15:54:32.147Z,0.3
2022-08-26T15:57:32.078Z,0.15
2022-08-26T16:00:32.090Z,0.25
2022-08-26T16:03:32.101Z,0.4
2022-08-26T16:06:32.080Z,0.65
2022-08-26T16:09:32.202Z,0.9
2022-08-26T16:12:32.068Z,0.7
2022-08-26T16:15:32.151Z,0.5
2022-08-26T16:18:32.065Z,1.4
2022-08-26T16:21:32.110Z,1.05
2022-08-26T16:24:32.101Z,1.45
2022-08-26T16:27:32.126Z,0.85
2022-08-26T16:30:32.133Z,0.75
2022-08-26T16:33:32.112Z,1.2
2022-08-26T16:36:32.135Z,2.75
2022-08-26T16:39:32.095Z,4.5
2022-08-26T16:42:32.151Z,1.3
2022-08-26T16:45:32.090Z,0.95
2022-08-26T16:48:32.162Z,1.8
2022-08-26T16:51:32.153Z,1.85
2022-08-26T16:54:32.131Z,1.65
2022-08-26T16:57:32.201Z,1.1
2022-08-26T17:00:32.136Z,1.9
2022-08-26T17:03:32.146Z,1.2
2022-08-26T17:06:32.123Z,1
2022-08-26T17:09:32.143Z,1.25
2022-08-26T17:12:32.197Z,0.75
2022-08-26T17:15:34.731Z,0.75
2022-08-26T17:18:32.195Z,0.85
2022-08-26T17:21:32.172Z,0.4
2022-08-26T17:24:32.210Z,0.25
2022-08-26T17:27:32.193Z,0.4
2022-08-26T17:30:32.205Z,0.9
2022-08-26T17:33:32.249Z,0.9
2022-08-26T17:36:32.150Z,0.7
2022-08-26T17:39:32.221Z,0.35
2022-08-26T17:42:32.777Z,0.5
2022-08-26T17:45:32.158Z,0.4
2022-08-26T17:48:32.221Z,0.2
2022-08-26T17:51:32.222Z,0.3
2022-08-26T17:54:32.760Z,0.3
2022-08-26T17:57:32.221Z,0.3
2022-08-26T18:00:32.182Z,0.5
2022-08-26T18:03:32.280Z,0.45
2022-08-26T18:06:32.260Z,0.5
2022-08-26T18:09:32.250Z,0.8
2022-08-26T18:12:32.161Z,1.15
2022-08-26T18:15:32.315Z,0.65
2022-08-26T18:18:32.323Z,0.7
2022-08-26T18:21:32.206Z,0.65
2022-08-26T18:24:32.305Z,0.45
2022-08-26T18:27:32.255Z,0.9
2022-08-26T18:30:32.388Z,1.55
2022-08-26T18:33:32.347Z,2.05
2022-08-26T18:36:32.272Z,2.3
2022-08-26T18:39:32.373Z,2.3
2022-08-26T18:42:32.292Z,1.15
2022-08-26T18:45:32.317Z,3.05
2022-08-26T18:48:32.226Z,2.9
2022-08-26T18:51:32.297Z,1.75
2022-08-26T18:54:32.282Z,1.75
2022-08-26T18:57:32.587Z,1.25
2022-08-26T19:00:32.411Z,1.55
2022-08-26T19:03:32.383Z,1.75
2022-08-26T19:06:32.217Z,2.1
2022-08-26T19:09:32.597Z,1.75
2022-08-26T19:12:33.603Z,2.35
2022-08-26T19:15:32.303Z,1.5
2022-08-26T19:18:34.596Z,1.5
2022-08-26T19:21:32.307Z,2
2022-08-26T19:24:32.322Z,2.25
2022-08-26T19:27:32.277Z,2.05
2022-08-26T19:30:33.100Z,2.45
2022-08-26T19:33:32.424Z,1.45
2022-08-26T19:36:32.297Z,1.7
2022-08-26T19:39:32.327Z,1.3
2022-08-26T19:42:32.341Z,1.35
2022-08-26T19:45:32.363Z,1.05
2022-08-26T19:48:32.331Z,1.35
2022-08-26T19:51:32.259Z,1.15
2022-08-26T19:54:32.356Z,1.4
2022-08-26T19:57:32.307Z,0.75
2022-08-26T20:00:32.307Z,1
2022-08-26T20:03:32.347Z,1.4
2022-08-26T20:06:32.299Z,1.9
2022-08-26T20:09:32.354Z,1.25
2022-08-26T20:12:32.344Z,1.2
2022-08-26T20:15:32.368Z,0.9
2022-08-26T20:18:32.297Z,0.65
2022-08-26T20:21:32.427Z,0.35
2022-08-26T20:24:32.302Z,0.3
2022-08-26T20:27:38.182Z,0.15
2022-08-26T20:30:32.304Z,0.6
2022-08-26T20:33:39.784Z,0.35
2022-08-26T20:36:32.331Z,0.2
2022-08-26T20:39:32.358Z,0
2022-08-26T20:42:32.362Z,0
2022-08-26T20:45:32.417Z,0.05
2022-08-26T20:48:32.398Z,0.1
2022-08-26T20:51:32.381Z,0.15
2022-08-26T20:54:32.367Z,0.35
2022-08-26T20:57:32.418Z,0.35
2022-08-26T21:00:32.377Z,0.4
2022-08-26T21:03:32.466Z,0.4
2022-08-26T21:06:32.859Z,0.3
2022-08-26T21:09:32.366Z,0.15
2022-08-26T21:12:32.431Z,0.45
2022-08-26T21:15:32.431Z,0.4
2022-08-26T21:18:32.408Z,0.65
2022-08-26T21:21:32.402Z,0.4
2022-08-26T21:24:32.373Z,0.4
2022-08-26T21:27:32.462Z,0.2
2022-08-26T21:30:32.396Z,0.3
2022-08-26T21:33:32.371Z,0
2022-08-26T21:36:32.381Z,0.2
2022-08-26T21:39:32.398Z,0.15
2022-08-26T21:42:32.443Z,0.25
2022-08-26T21:45:32.447Z,0.1
2022-08-26T21:48:35.442Z,0.2
2022-08-26T21:51:32.438Z,0
2022-08-26T21:54:32.421Z,0.1
2022-08-26T21:57:32.452Z,0.65
2022-08-26T22:00:32.434Z,0.35
2022-08-26T22:03:43.582Z,0
2022-08-26T22:06:32.436Z,0.25
2022-08-26T22:09:32.456Z,0.15
2022-08-26T22:12:32.416Z,0.65
2022-08-26T22:15:32.688Z,0.45
2022-08-26T22:18:32.423Z,0.45
2022-08-26T22:21:32.438Z,0.25
2022-08-26T22:24:32.446Z,0.2
2022-08-26T22:27:32.416Z,0.4
2022-08-26T22:30:32.482Z,0.25
2022-08-26T22:33:32.458Z,0.15
2022-08-26T22:36:32.478Z,0.45
2022-08-26T22:39:32.519Z,0.5
2022-08-26T22:42:32.411Z,0.25
2022-08-26T22:45:32.619Z,0.25
2022-08-26T22:48:32.448Z,0.3
2022-08-26T22:51:32.463Z,0.2
2022-08-26T22:54:32.434Z,0
2022-08-26T22:57:32.452Z,0.15
2022-08-26T23:00:33.231Z,0.35
2022-08-26T23:03:32.554Z,0.7
2022-08-26T23:06:32.486Z,0.95
2022-08-26T23:09:32.527Z,0.4
2022-08-26T23:12:32.503Z,0.5
2022-08-26T23:15:32.498Z,0.7
2022-08-26T23:18:32.531Z,0.45
2022-08-26T23:21:32.531Z,0.35
2022-08-26T23:24:32.446Z,0
2022-08-26T23:27:32.477Z,0
2022-08-26T23:30:32.529Z,0.45
2022-08-26T23:33:32.519Z,0.7
2022-08-26T23:36:35.887Z,1.15
2022-08-26T23:39:32.491Z,0.7
2022-08-26T23:42:32.496Z,0.9
2022-08-26T23:45:32.666Z,0.55
2022-08-26T23:48:32.479Z,0.9
2022-08-26T23:51:32.495Z,0.35
2022-08-26T23:54:32.551Z,0.1
2022-08-26T23:57:32.503Z,0.25
